Time;durP1;ratioP1;P1;durP2;ratioP2;P2;SDS_P1;SDS_P2;PMS_P1;PMS_P2;Temp;Humidity;BMP_temperature;BMP_pressure;BME280_temperature;BME280_humidity;BME280_pressure;Samples;Min_cycle;Max_cycle;Signal;HPM_P1;HPM_P2
2023/01/03 00:01:32;;;;;;;;;21.50;15.00;;;;;6.64;96.77;99047.97;4886978;28;102319;-69
2023/01/03 00:04:00;;;;;;;;;12.50;9.25;;;;;6.62;96.31;99047.28;4883578;28;103981;-70
2023/01/03 00:06:37;;;;;;;;;14.50;12.50;;;;;6.61;96.77;99045.63;4862171;28;102221;-71
2023/01/03 00:09:08;;;;;;;;;14.75;12.75;;;;;6.60;96.67;99057.38;4890875;28;102169;-70
2023/01/03 00:14:26;;;;;;;;;12.50;11.50;;;;;6.54;96.59;99056.16;4879876;28;108610;-70
2023/01/03 00:16:55;;;;;;;;;16.50;15.00;;;;;6.57;96.94;99060.41;4887076;28;102435;-68
2023/01/03 00:19:24;;;;;;;;;12.50;11.00;;;;;6.56;96.38;99054.19;4888912;28;102215;-70
2023/01/03 00:21:52;;;;;;;;;13.00;12.00;;;;;6.56;96.79;99064.06;4901066;28;102505;-70
2023/01/03 00:24:21;;;;;;;;;15.50;13.00;;;;;6.56;97.10;99048.81;4931013;28;103463;-70
2023/01/03 00:26:48;;;;;;;;;12.75;11.25;;;;;6.56;96.51;99062.25;4923506;28;102163;-70
2023/01/03 00:29:15;;;;;;;;;8.00;7.00;;;;;6.57;96.80;99057.72;4916467;28;103368;-71
2023/01/03 00:31:42;;;;;;;;;13.00;9.75;;;;;6.55;96.94;99060.56;4920750;28;102023;-71
2023/01/03 00:34:10;;;;;;;;;13.25;12.25;;;;;6.55;96.79;99073.13;4922284;28;104273;-69
2023/01/03 00:36:37;;;;;;;;;7.00;4.00;;;;;6.54;96.40;99066.06;4921177;28;102310;-69
2023/01/03 00:39:05;;;;;;;;;11.00;8.75;;;;;6.53;96.71;99077.84;4915489;28;101931;-70
2023/01/03 00:41:33;;;;;;;;;6.75;5.50;;;;;6.43;96.67;99055.66;4909322;28;103216;-70
2023/01/03 00:44:00;;;;;;;;;9.25;7.75;;;;;6.46;96.73;99074.97;4920257;28;104239;-69
2023/01/03 00:46:27;;;;;;;;;11.00;9.00;;;;;6.49;96.81;99084.53;4914496;28;102016;-70
2023/01/03 00:48:54;;;;;;;;;13.25;11.00;;;;;6.47;97.05;99082.03;4910973;28;102767;-70
2023/01/03 00:51:25;;;;;;;;;14.00;12.00;;;;;6.30;96.91;99056.13;4897942;28;102540;-70
2023/01/03 00:53:54;;;;;;;;;18.50;13.50;;;;;6.42;97.12;99078.13;4897623;28;103455;-70
2023/01/03 00:56:33;;;;;;;;;12.25;11.25;;;;;6.41;96.95;99088.03;4911105;28;103982;-70
2023/01/03 00:59:01;;;;;;;;;11.75;11.50;;;;;6.39;97.54;99083.84;4884596;28;102373;-69
2023/01/03 01:01:39;;;;;;;;;10.50;7.75;;;;;6.37;96.97;99091.22;4912711;28;102525;-70
2023/01/03 01:04:24;;;;;;;;;13.75;9.75;;;;;6.33;97.52;99089.84;4902875;28;108827;-70
2023/01/03 01:06:57;;;;;;;;;10.00;8.00;;;;;6.33;97.47;99092.53;4907534;28;107886;-71
2023/01/03 01:09:31;;;;;;;;;7.75;7.00;;;;;6.30;97.25;99104.47;4907943;28;102499;-70
2023/01/03 01:11:58;;;;;;;;;9.00;9.00;;;;;6.27;97.20;99102.91;4911941;28;102585;-70
2023/01/03 01:14:28;;;;;;;;;10.25;9.00;;;;;6.28;97.66;99093.88;4867798;28;103935;-69
2023/01/03 01:17:00;;;;;;;;;13.25;10.50;;;;;6.25;97.43;99094.22;4880171;28;102362;-70
2023/01/03 01:19:30;;;;;;;;;8.50;7.00;;;;;6.28;97.57;99109.97;4922619;28;102441;-69
2023/01/03 01:21:59;;;;;;;;;13.25;9.00;;;;;6.28;98.00;99107.28;4888492;28;102338;-70
2023/01/03 01:24:26;;;;;;;;;8.50;7.00;;;;;6.30;97.50;99112.53;4897373;28;104068;-69
2023/01/03 01:26:53;;;;;;;;;8.75;7.50;;;;;6.27;97.14;99105.59;4895081;28;102486;-69
2023/01/03 01:29:21;;;;;;;;;7.75;7.25;;;;;6.29;97.23;99105.47;4898730;28;103014;-70
2023/01/03 01:31:48;;;;;;;;;9.50;8.00;;;;;6.30;97.70;99106.31;4898826;28;102662;-69
2023/01/03 01:34:16;;;;;;;;;12.75;7.25;;;;;6.32;97.28;99098.91;4881206;28;104001;-69
2023/01/03 01:36:44;;;;;;;;;9.75;8.00;;;;;6.33;97.80;99105.97;4840617;28;102433;-70
2023/01/03 01:39:16;;;;;;;;;11.75;8.75;;;;;6.35;97.52;99099.41;4891728;28;101764;-71
2023/01/03 01:44:41;;;;;;;;;13.00;10.00;;;;;6.41;97.50;99111.38;4885667;28;103781;-70
2023/01/03 01:47:31;;;;;;;;;14.75;13.50;;;;;6.45;97.19;99110.03;4890670;28;101985;-70
2023/01/03 01:50:16;;;;;;;;;12.75;10.50;;;;;6.46;97.01;99101.81;4901834;28;102045;-69
2023/01/03 01:53:08;;;;;;;;;13.00;12.00;;;;;6.51;96.63;99109.41;4889315;28;102414;-70
2023/01/03 01:55:55;;;;;;;;;12.25;10.00;;;;;6.49;96.55;99106.88;4888858;28;104045;-69
2023/01/03 01:58:27;;;;;;;;;10.00;9.00;;;;;6.58;96.63;99116.63;4885089;28;101991;-68
2023/01/03 02:00:54;;;;;;;;;8.75;8.50;;;;;6.58;95.92;99111.25;4871553;28;103527;-69
2023/01/03 02:03:22;;;;;;;;;13.75;8.50;;;;;6.64;95.55;99115.16;4884898;28;104807;-70
2023/01/03 02:05:53;;;;;;;;;11.00;9.50;;;;;6.64;95.17;99110.63;4875491;28;104056;-70
2023/01/03 02:08:23;;;;;;;;;10.00;7.50;;;;;6.66;95.26;99113.97;4862373;28;102150;-68
2023/01/03 02:11:24;;;;;;;;;9.00;7.00;;;;;6.69;95.28;99120.88;4887398;28;102042;-70
2023/01/03 02:14:41;;;;;;;;;10.25;7.50;;;;;6.73;95.19;99124.91;4888416;28;103545;-69
2023/01/03 02:17:35;;;;;;;;;7.50;6.00;;;;;6.77;94.90;99120.88;4880307;28;107426;-70
2023/01/03 02:20:49;;;;;;;;;8.75;8.75;;;;;6.80;94.60;99125.09;4894792;28;102846;-69
2023/01/03 02:24:08;;;;;;;;;9.75;8.25;;;;;6.82;94.13;99121.25;4905290;28;101862;-70
2023/01/03 02:27:36;;;;;;;;;12.75;10.00;;;;;6.84;94.07;99127.31;4902072;28;102549;-70
2023/01/03 02:30:33;;;;;;;;;12.75;11.50;;;;;6.90;94.07;99132.00;4886271;28;107620;-70
2023/01/03 02:33:22;;;;;;;;;13.75;10.50;;;;;6.93;93.38;99133.53;4907593;28;102368;-70
2023/01/03 02:36:19;;;;;;;;;13.50;11.00;;;;;6.96;93.47;99146.63;4907428;28;102208;-68
2023/01/03 02:38:58;;;;;;;;;16.00;13.75;;;;;6.97;92.88;99159.94;4914307;28;103372;-72
2023/01/03 02:41:43;;;;;;;;;14.75;13.50;;;;;6.99;93.12;99159.75;4908159;28;104173;-70
2023/01/03 02:44:32;;;;;;;;;18.00;14.25;;;;;6.82;92.93;99129.31;4916677;28;102351;-70
2023/01/03 02:47:10;;;;;;;;;17.50;15.00;;;;;7.06;93.06;99171.53;4891283;28;102160;-69
2023/01/03 02:49:42;;;;;;;;;17.00;13.75;;;;;7.04;92.48;99174.38;4903391;28;102342;-70
2023/01/03 02:52:14;;;;;;;;;15.00;13.75;;;;;7.06;91.95;99175.06;4896438;28;108470;-69
2023/01/03 02:54:48;;;;;;;;;13.25;12.50;;;;;7.09;92.45;99193.56;4881048;28;102348;-70
2023/01/03 02:57:21;;;;;;;;;16.50;10.75;;;;;7.03;92.30;99175.38;4904706;28;103003;-70
2023/01/03 02:59:56;;;;;;;;;15.00;14.50;;;;;7.00;92.43;99173.03;4916158;28;102239;-70
2023/01/03 03:02:31;;;;;;;;;20.25;15.75;;;;;6.91;91.90;99174.00;4907677;28;103656;-70
2023/01/03 03:05:01;;;;;;;;;15.75;12.75;;;;;7.06;92.54;99201.97;4912837;28;102387;-70
2023/01/03 03:07:33;;;;;;;;;18.00;15.25;;;;;7.06;92.26;99201.13;4909707;28;110181;-70
2023/01/03 03:15:53;;;;;;;;;15.00;11.50;;;;;7.14;91.37;99214.56;4905124;28;102665;-71
2023/01/03 03:18:42;;;;;;;;;9.75;9.00;;;;;7.18;91.79;99215.94;4915209;28;102379;-70
2023/01/03 03:26:58;;;;;;;;;10.50;9.25;;;;;7.15;91.89;99214.41;4906254;28;102585;-70
2023/01/03 03:29:28;;;;;;;;;12.25;7.75;;;;;7.17;91.02;99216.94;4886670;28;102188;-69
2023/01/03 03:31:55;;;;;;;;;9.00;7.50;;;;;7.13;91.30;99213.72;4909827;28;102729;-69
2023/01/03 03:34:29;;;;;;;;;7.50;6.00;;;;;7.16;91.34;99224.16;4887492;28;104341;-70
2023/01/03 03:37:24;;;;;;;;;12.50;9.75;;;;;7.15;91.55;99222.50;4899519;28;102185;-70
2023/01/03 03:46:02;;;;;;;;;10.00;6.25;;;;;7.13;91.26;99227.16;4874516;28;109184;-69
2023/01/03 03:51:32;;;;;;;;;7.25;5.50;;;;;7.15;91.77;99227.88;4889984;28;103078;-69
2023/01/03 03:54:03;;;;;;;;;6.25;5.50;;;;;7.16;91.73;99231.38;4907676;28;102234;-70
2023/01/03 03:56:32;;;;;;;;;7.75;7.00;;;;;7.12;91.77;99235.41;4911082;28;104652;-69
2023/01/03 03:59:05;;;;;;;;;10.00;8.00;;;;;7.09;91.51;99233.88;4914176;28;102391;-70
2023/01/03 04:01:35;;;;;;;;;9.75;9.75;;;;;7.13;91.57;99243.31;4910436;28;102249;-69
2023/01/03 04:04:09;;;;;;;;;8.75;7.00;;;;;7.13;91.56;99246.00;4912527;28;102140;-68
2023/01/03 04:06:41;;;;;;;;;8.00;6.00;;;;;7.08;91.79;99258.25;4905027;28;104008;-69
2023/01/03 04:09:10;;;;;;;;;7.50;5.00;;;;;7.09;91.77;99255.41;4834835;28;102148;-69
2023/01/03 04:11:37;;;;;;;;;8.00;7.75;;;;;7.11;91.20;99255.25;4881269;28;102531;-70
2023/01/03 04:14:04;;;;;;;;;8.00;7.50;;;;;7.10;91.81;99258.94;4899649;28;103340;-70
2023/01/03 04:16:31;;;;;;;;;6.50;3.00;;;;;7.04;91.69;99254.19;4909266;28;104434;-69
2023/01/03 04:18:59;;;;;;;;;8.75;8.25;;;;;7.06;91.37;99269.19;4913006;28;102441;-70
2023/01/03 04:21:26;;;;;;;;;7.75;6.25;;;;;7.04;91.51;99262.25;4922824;28;102820;-69
2023/01/03 04:23:53;;;;;;;;;8.25;7.50;;;;;7.02;91.36;99272.34;4884907;28;102225;-69
2023/01/03 04:26:21;;;;;;;;;9.25;9.00;;;;;7.03;92.07;99272.16;4888534;28;104245;-70
2023/01/03 04:28:48;;;;;;;;;8.00;8.00;;;;;7.04;91.67;99273.88;4889924;28;102980;-68
2023/01/03 04:31:15;;;;;;;;;7.00;7.00;;;;;7.03;91.55;99276.69;4866441;28;102502;-69
2023/01/03 04:33:42;;;;;;;;;8.50;7.75;;;;;7.03;91.26;99279.38;4912041;28;101945;-68
2023/01/03 04:36:09;;;;;;;;;3.50;2.50;;;;;7.04;91.53;99276.56;4885308;28;108932;-69
2023/01/03 04:38:36;;;;;;;;;10.75;8.50;;;;;7.04;91.90;99278.41;4860585;28;103996;-69
2023/01/03 04:41:07;;;;;;;;;8.75;8.00;;;;;7.02;91.32;99275.88;4897758;28;102293;-69
2023/01/03 04:46:22;;;;;;;;;10.75;8.25;;;;;7.04;91.39;99284.63;4914320;28;107357;-70
2023/01/03 04:48:49;;;;;;;;;8.00;5.25;;;;;7.04;91.24;99281.94;4910339;28;102310;-70
2023/01/03 04:51:16;;;;;;;;;4.50;4.00;;;;;7.03;91.48;99285.63;4898063;28;102934;-68
2023/01/03 04:53:43;;;;;;;;;6.25;6.00;;;;;7.04;91.32;99287.31;4918980;28;102480;-68
2023/01/03 04:56:10;;;;;;;;;9.25;9.00;;;;;7.05;91.39;99294.38;4923181;28;108099;-69
2023/01/03 04:58:37;;;;;;;;;9.00;7.75;;;;;7.07;91.44;99294.19;4909551;28;102491;-68
2023/01/03 05:01:06;;;;;;;;;14.50;13.00;;;;;6.86;91.56;99256.97;4916515;28;103047;-69
2023/01/03 05:03:34;;;;;;;;;13.50;11.25;;;;;7.05;91.32;99291.69;4928977;28;102201;-69
2023/01/03 05:06:05;;;;;;;;;13.50;9.25;;;;;7.04;90.89;99291.84;4909855;28;104329;-69
2023/01/03 05:08:32;;;;;;;;;13.25;8.50;;;;;7.08;90.89;99299.41;4912373;28;102375;-69
2023/01/03 05:11:00;;;;;;;;;10.00;10.00;;;;;7.07;91.03;99289.66;4905514;28;105264;-70
2023/01/03 05:13:27;;;;;;;;;11.00;9.75;;;;;7.08;90.45;99293.19;4912821;28;102356;-69
2023/01/03 05:15:54;;;;;;;;;11.00;7.75;;;;;7.09;90.52;99298.41;4907759;28;104000;-68
2023/01/03 05:18:20;;;;;;;;;14.50;12.75;;;;;7.07;90.51;99295.03;4887889;28;102941;-69
2023/01/03 05:26:20;;;;;;;;;12.25;12.00;;;;;7.07;90.55;99311.16;4882259;28;109346;-70
2023/01/03 05:28:51;;;;;;;;;19.75;15.75;;;;;7.07;90.43;99316.53;4904399;28;102495;-70
2023/01/03 05:31:19;;;;;;;;;19.50;15.00;;;;;7.00;90.29;99322.75;4909855;28;102264;-69
2023/01/03 05:33:48;;;;;;;;;21.25;15.75;;;;;7.04;90.63;99329.47;4912708;28;103223;-70
2023/01/03 05:36:15;;;;;;;;;11.00;11.00;;;;;7.04;90.60;99330.31;4892198;28;104040;-69
2023/01/03 05:38:42;;;;;;;;;13.00;9.00;;;;;7.06;90.81;99335.56;4910774;28;102405;-70
2023/01/03 05:41:12;;;;;;;;;13.00;9.75;;;;;7.04;90.39;99341.09;4891923;28;104152;-69
2023/01/03 05:43:39;;;;;;;;;12.00;9.50;;;;;7.05;90.45;99339.25;4893582;28;102853;-69
2023/01/03 05:46:06;;;;;;;;;14.75;12.50;;;;;7.00;90.67;99346.94;4915455;28;104116;-70
2023/01/03 05:48:33;;;;;;;;;12.25;12.00;;;;;7.01;91.14;99344.09;4902954;28;102175;-69
2023/01/03 05:51:00;;;;;;;;;13.75;13.00;;;;;6.99;90.76;99347.94;4897128;28;102057;-69
2023/01/03 05:53:27;;;;;;;;;9.50;7.75;;;;;7.04;90.33;99356.38;4898035;28;102519;-69
2023/01/03 05:55:54;;;;;;;;;10.75;8.25;;;;;7.04;90.22;99362.59;4898625;28;103999;-69
2023/01/03 05:58:21;;;;;;;;;8.50;7.50;;;;;7.07;90.92;99362.25;4895498;28;102394;-70
2023/01/03 06:00:48;;;;;;;;;7.50;7.00;;;;;7.05;90.67;99360.75;4918042;28;102424;-69
2023/01/03 06:03:15;;;;;;;;;9.50;8.50;;;;;7.11;90.43;99371.69;4891520;28;102267;-70
2023/01/03 06:05:43;;;;;;;;;10.25;8.00;;;;;7.15;90.49;99381.16;4910230;28;103977;-69
2023/01/03 06:08:16;;;;;;;;;12.50;12.00;;;;;7.15;90.68;99383.84;4902978;28;102081;-70
2023/01/03 06:10:42;;;;;;;;;8.00;7.75;;;;;7.16;90.02;99374.75;4911857;28;102405;-69
2023/01/03 06:13:10;;;;;;;;;7.25;4.00;;;;;7.17;89.78;99379.13;4888333;28;102374;-68
2023/01/03 06:15:37;;;;;;;;;8.75;7.75;;;;;7.18;89.78;99388.03;4892015;28;104730;-69
2023/01/03 06:18:04;;;;;;;;;8.75;6.75;;;;;7.18;89.83;99388.88;4897662;28;102319;-68
2023/01/03 06:20:31;;;;;;;;;10.25;7.75;;;;;7.18;90.29;99391.59;4903377;28;102114;-68
2023/01/03 06:22:58;;;;;;;;;7.25;4.00;;;;;7.20;89.60;99394.13;4904743;28;102411;-69
2023/01/03 06:25:26;;;;;;;;;7.00;6.00;;;;;7.20;90.11;99393.28;4908788;28;104257;-69
2023/01/03 06:27:54;;;;;;;;;4.00;4.00;;;;;7.19;89.75;99397.81;4909960;28;101886;-70
2023/01/03 06:30:21;;;;;;;;;3.00;3.00;;;;;7.18;89.96;99394.28;4915210;28;102988;-70
2023/01/03 06:32:48;;;;;;;;;6.25;6.25;;;;;7.13;89.95;99401.97;4918328;28;102380;-70
2023/01/03 06:35:15;;;;;;;;;10.25;9.00;;;;;7.11;89.94;99413.91;4910077;28;104031;-70
2023/01/03 06:37:42;;;;;;;;;10.25;8.00;;;;;7.12;90.21;99412.88;4918242;28;103410;-69
2023/01/03 06:40:09;;;;;;;;;12.25;8.75;;;;;6.95;90.33;99394.97;4884352;28;101925;-70
2023/01/03 06:42:41;;;;;;;;;7.00;4.50;;;;;7.11;90.20;99428.16;4909604;28;102077;-69
2023/01/03 06:53:33;;;;;;;;;6.00;5.00;;;;;7.14;90.14;99438.63;4881112;28;102390;-68
2023/01/03 06:56:01;;;;;;;;;6.25;5.00;;;;;7.15;90.32;99443.00;4906306;28;103854;-69
2023/01/03 06:58:29;;;;;;;;;3.00;2.25;;;;;7.16;90.15;99444.66;4919774;28;102011;-70
2023/01/03 07:00:58;;;;;;;;;6.00;5.50;;;;;7.17;90.52;99450.91;4912935;28;102294;-69
2023/01/03 07:03:25;;;;;;;;;6.00;4.50;;;;;7.17;89.97;99446.38;4912920;28;102143;-69
2023/01/03 07:05:53;;;;;;;;;6.75;3.50;;;;;7.18;90.33;99452.59;4915480;28;105173;-70
2023/01/03 07:08:20;;;;;;;;;3.75;3.00;;;;;7.22;89.86;99458.50;4925404;28;102226;-70
2023/01/03 07:10:47;;;;;;;;;19.75;15.50;;;;;7.23;90.10;99469.09;4923345;28;102338;-68
2023/01/03 07:15:59;;;;;;;;;24.00;21.00;;;;;7.32;90.19;99472.69;4895537;28;108490;-69
2023/01/03 07:18:28;;;;;;;;;29.25;27.00;;;;;7.36;89.55;99476.75;4905191;28;102334;-69
2023/01/03 07:20:55;;;;;;;;;25.25;22.50;;;;;7.44;88.92;99474.94;4907011;28;102285;-69
2023/01/03 07:23:22;;;;;;;;;26.50;21.75;;;;;7.48;88.54;99479.00;4896671;28;102754;-70
2023/01/03 07:25:53;;;;;;;;;28.00;24.25;;;;;7.50;88.40;99476.16;4861776;28;104108;-69
2023/01/03 07:28:20;;;;;;;;;23.25;20.75;;;;;7.55;88.72;99476.50;4882101;28;102094;-69
2023/01/03 07:30:47;;;;;;;;;24.75;20.00;;;;;7.55;88.48;99477.38;4877762;28;102346;-68
2023/01/03 07:33:15;;;;;;;;;18.25;16.25;;;;;7.62;88.18;99491.00;4896199;28;102678;-70
2023/01/03 07:35:43;;;;;;;;;33.25;24.75;;;;;7.56;88.03;99499.75;4901092;28;108670;-69
2023/01/03 07:38:12;;;;;;;;;30.25;25.50;;;;;7.55;88.67;99498.03;4904015;28;102129;-70
2023/01/03 07:40:39;;;;;;;;;27.75;22.00;;;;;7.65;87.86;99514.09;4903380;28;101865;-69
2023/01/03 07:45:55;;;;;;;;;25.50;22.50;;;;;7.69;87.40;99516.28;4893562;28;108832;-70
2023/01/03 07:48:22;;;;;;;;;25.25;22.50;;;;;7.68;86.95;99522.69;4896833;28;102164;-70
2023/01/03 07:50:49;;;;;;;;;31.25;24.75;;;;;7.61;87.05;99519.75;4898196;28;102102;-69
2023/01/03 07:53:16;;;;;;;;;29.50;24.25;;;;;7.64;86.50;99518.63;4909060;28;102090;-69
2023/01/03 07:55:46;;;;;;;;;26.25;23.00;;;;;7.66;87.21;99511.22;4900911;28;104039;-69
2023/01/03 07:58:13;;;;;;;;;29.50;24.00;;;;;7.60;86.54;99512.72;4899246;28;102220;-69
2023/01/03 08:00:41;;;;;;;;;29.75;22.75;;;;;7.73;86.77;99520.34;4910517;28;102430;-69
2023/01/03 08:03:08;;;;;;;;;26.75;24.25;;;;;7.70;86.40;99522.53;4881784;28;102570;-68
2023/01/03 08:05:37;;;;;;;;;24.75;19.50;;;;;7.86;85.72;99534.22;4892268;28;104181;-70
2023/01/03 08:08:05;;;;;;;;;17.75;15.25;;;;;7.97;85.84;99538.47;4898811;28;101889;-69
2023/01/03 08:13:18;;;;;;;;;16.00;14.75;;;;;8.15;84.81;99525.72;4898130;28;102077;-68
2023/01/03 08:15:54;;;;;;;;;15.75;13.25;;;;;8.04;84.31;99491.88;4900280;28;108694;-68
2023/01/03 08:18:26;;;;;;;;;22.00;17.00;;;;;8.25;84.34;99542.59;4880838;28;102436;-69
2023/01/03 08:20:55;;;;;;;;;27.25;20.25;;;;;8.21;84.64;99517.00;4900085;28;102257;-69
2023/01/03 08:23:24;;;;;;;;;20.75;19.25;;;;;8.32;83.99;99527.53;4923392;28;102348;-69
2023/01/03 08:25:57;;;;;;;;;26.00;23.25;;;;;8.45;83.66;99535.13;4900807;28;104000;-69
2023/01/03 08:28:24;;;;;;;;;28.25;24.00;;;;;8.52;83.29;99537.00;4917475;28;102254;-69
2023/01/03 08:30:51;;;;;;;;;33.75;25.00;;;;;8.50;82.76;99527.41;4917734;28;101996;-68
2023/01/03 08:33:19;;;;;;;;;39.75;33.00;;;;;8.42;83.48;99533.59;4922467;28;102262;-69
2023/01/03 08:36:10;;;;;;;;;31.50;27.50;;;;;8.42;82.66;99528.19;4927035;28;104283;-69
2023/01/03 08:38:47;;;;;;;;;25.00;22.00;;;;;8.50;82.09;99535.47;4916988;28;102200;-68
2023/01/03 08:41:19;;;;;;;;;19.25;14.00;;;;;8.46;82.36;99542.22;4920295;28;102443;-68
2023/01/03 08:43:48;;;;;;;;;29.75;25.00;;;;;8.60;82.33;99548.81;4916018;28;102010;-68
2023/01/03 08:46:16;;;;;;;;;29.25;24.25;;;;;8.60;80.82;99532.66;4914739;28;108863;-68
2023/01/03 08:48:44;;;;;;;;;15.50;15.50;;;;;8.69;80.75;99537.03;4926815;28;102047;-69
2023/01/03 08:51:11;;;;;;;;;25.25;21.00;;;;;8.79;81.05;99545.78;4924896;28;103072;-67
2023/01/03 08:53:38;;;;;;;;;19.75;17.50;;;;;8.88;79.56;99540.25;4930746;28;102287;-68
2023/01/03 08:56:05;;;;;;;;;22.25;16.75;;;;;8.68;79.14;99546.97;4923017;28;103989;-69
2023/01/03 08:58:32;;;;;;;;;17.25;16.25;;;;;8.57;79.55;99543.72;4925529;28;101989;-68
2023/01/03 09:01:03;;;;;;;;;14.25;12.25;;;;;8.70;79.81;99550.34;4925361;28;102353;-67
2023/01/03 09:03:31;;;;;;;;;21.75;15.75;;;;;8.61;80.14;99551.31;4932388;28;102226;-68
2023/01/03 09:06:02;;;;;;;;;17.25;11.50;;;;;8.72;79.75;99550.19;4909327;28;104090;-68
2023/01/03 09:08:30;;;;;;;;;14.25;13.25;;;;;8.77;79.67;99567.56;4925757;28;102206;-69
2023/01/03 09:10:57;;;;;;;;;15.00;14.00;;;;;8.72;79.80;99564.50;4924899;28;101969;-68
2023/01/03 09:13:24;;;;;;;;;17.75;15.75;;;;;8.80;80.20;99571.75;4923707;28;102162;-68
2023/01/03 09:15:59;;;;;;;;;20.25;14.75;;;;;8.70;80.72;99577.28;4923523;28;103996;-68
2023/01/03 09:18:26;;;;;;;;;13.00;12.00;;;;;8.69;80.75;99567.50;4924973;28;102511;-68
2023/01/03 09:20:53;;;;;;;;;16.25;13.75;;;;;8.67;79.93;99566.84;4907307;28;102300;-68
2023/01/03 09:23:20;;;;;;;;;14.00;12.25;;;;;8.57;81.01;99565.31;4918627;28;103916;-68
2023/01/03 09:25:47;;;;;;;;;10.75;10.25;;;;;8.72;80.14;99564.50;4917039;28;108852;-69
2023/01/03 09:28:13;;;;;;;;;10.50;9.00;;;;;8.85;79.79;99574.81;4928093;28;102124;-69
2023/01/03 09:30:40;;;;;;;;;13.00;11.25;;;;;8.76;79.13;99576.66;4915528;28;102370;-69
2023/01/03 09:33:09;;;;;;;;;9.00;9.00;;;;;8.69;78.98;99566.69;4932583;28;102289;-67
2023/01/03 09:35:38;;;;;;;;;12.00;11.00;;;;;8.59;79.63;99561.44;4912331;28;103639;-69
2023/01/03 09:38:05;;;;;;;;;9.75;8.25;;;;;8.76;79.28;99562.31;4928310;28;102001;-68
2023/01/03 09:40:39;;;;;;;;;10.75;9.50;;;;;8.71;79.75;99560.13;4926605;28;102535;-68
2023/01/03 09:43:14;;;;;;;;;11.50;10.25;;;;;8.81;79.13;99573.44;4929304;28;102320;-69
2023/01/03 09:45:57;;;;;;;;;13.50;11.25;;;;;8.76;77.69;99565.84;4909367;28;108495;-69
2023/01/03 09:48:37;;;;;;;;;12.00;9.00;;;;;8.89;77.73;99565.38;4901914;28;102343;-68
2023/01/03 10:03:42;;;;;;;;;12.50;9.50;;;;;8.85;77.84;99562.16;4920799;28;103434;-68
2023/01/03 10:05:35;;;;;;;;;13.00;10.50;;;;;8.94;76.96;99553.06;4910888;28;102241;-68
2023/01/03 10:08:13;;;;;;;;;15.00;12.25;;;;;9.01;75.11;99549.69;4927056;28;103157;-69
2023/01/03 10:11:07;;;;;;;;;23.75;18.00;;;;;8.81;75.84;99557.28;4894608;28;102405;-67
2023/01/03 10:13:53;;;;;;;;;20.00;18.75;;;;;8.73;75.62;99555.41;4899882;28;102135;-68
2023/01/03 10:16:36;;;;;;;;;19.25;16.50;;;;;8.69;76.14;99548.63;4925887;28;102242;-68
2023/01/03 10:19:09;;;;;;;;;21.75;17.50;;;;;8.63;76.40;99546.63;4927223;28;108792;-69
2023/01/03 10:21:50;;;;;;;;;19.00;17.25;;;;;8.62;76.59;99553.03;4920328;28;102272;-68
2023/01/03 10:24:29;;;;;;;;;17.25;15.50;;;;;8.67;76.39;99539.91;4929769;28;102397;-69
2023/01/03 10:27:07;;;;;;;;;17.00;16.00;;;;;8.74;76.97;99545.44;4907479;28;102464;-69
2023/01/03 10:29:34;;;;;;;;;15.00;14.50;;;;;8.80;76.04;99545.63;4915065;28;104011;-69
2023/01/03 10:32:27;;;;;;;;;17.75;16.00;;;;;8.75;75.95;99553.38;4918714;28;102260;-68
2023/01/03 10:35:12;;;;;;;;;18.00;16.00;;;;;8.74;75.33;99546.28;4894890;28;102220;-68
2023/01/03 10:37:40;;;;;;;;;17.00;16.50;;;;;8.67;74.76;99547.97;4934890;28;102205;-68
2023/01/03 10:40:07;;;;;;;;;20.25;18.25;;;;;8.65;74.79;99549.97;4917621;28;103976;-68
2023/01/03 10:42:36;;;;;;;;;9.00;8.25;;;;;8.64;75.06;99548.31;4901241;28;102434;-67
2023/01/03 10:45:21;;;;;;;;;14.75;14.00;;;;;8.71;75.29;99545.78;4934274;28;102000;-68
2023/01/03 10:47:59;;;;;;;;;21.75;19.25;;;;;8.71;76.13;99543.94;4917717;28;102414;-69
2023/01/03 10:50:27;;;;;;;;;17.25;16.25;;;;;8.64;76.04;99521.38;4930037;28;108671;-68
2023/01/03 10:53:04;;;;;;;;;21.00;19.00;;;;;8.82;76.10;99538.25;4932875;28;102347;-68
2023/01/03 10:55:34;;;;;;;;;19.50;17.25;;;;;9.01;76.69;99536.19;4930364;28;102079;-68
2023/01/03 10:58:11;;;;;;;;;21.25;17.00;;;;;9.18;75.58;99541.47;4932360;28;102399;-68
2023/01/03 11:00:38;;;;;;;;;20.50;17.25;;;;;9.21;74.15;99540.25;4921419;28;103959;-68
2023/01/03 11:03:08;;;;;;;;;24.50;18.50;;;;;9.13;74.53;99538.41;4919898;28;102309;-68
2023/01/03 11:05:37;;;;;;;;;19.50;16.00;;;;;9.22;73.82;99544.66;4922193;28;102199;-69
2023/01/03 11:08:14;;;;;;;;;16.25;14.75;;;;;9.14;73.26;99526.59;4929532;28;102288;-69
2023/01/03 11:10:58;;;;;;;;;19.75;17.00;;;;;9.11;74.15;99543.13;4922099;28;103592;-69
2023/01/03 11:13:31;;;;;;;;;18.50;16.50;;;;;9.13;74.44;99540.28;4928563;28;102415;-68
2023/01/03 11:16:01;;;;;;;;;9.75;9.25;;;;;9.23;73.34;99533.66;4924239;28;105670;-69
2023/01/03 11:18:29;;;;;;;;;24.75;21.00;;;;;8.98;73.56;99533.84;4930250;28;102380;-67
2023/01/03 11:21:01;;;;;;;;;15.50;15.00;;;;;8.93;74.13;99529.81;4926004;28;104006;-69
2023/01/03 11:23:48;;;;;;;;;17.25;14.00;;;;;8.89;73.91;99536.53;4917544;28;102400;-68
2023/01/03 11:27:01;;;;;;;;;15.00;11.75;;;;;8.90;73.34;99551.72;4920412;28;102647;-69
2023/01/03 11:29:47;;;;;;;;;13.75;13.25;;;;;8.89;73.47;99544.63;4926410;28;102042;-68
2023/01/03 11:32:25;;;;;;;;;11.75;11.75;;;;;8.90;73.01;99540.09;4919110;28;103971;-69
2023/01/03 11:35:24;;;;;;;;;11.75;11.75;;;;;8.84;73.17;99529.97;4933250;28;102202;-67
2023/01/03 11:38:12;;;;;;;;;14.25;10.00;;;;;8.95;73.05;99537.75;4874951;28;102099;-68
2023/01/03 11:41:04;;;;;;;;;20.00;15.75;;;;;8.95;74.66;99532.34;4897089;28;102365;-69
2023/01/03 11:43:43;;;;;;;;;15.00;13.75;;;;;9.07;73.35;99536.38;4890621;28;108835;-68
2023/01/03 11:46:12;;;;;;;;;13.00;12.00;;;;;9.15;73.06;99524.75;4925481;28;102574;-68
2023/01/03 11:48:58;;;;;;;;;18.00;14.00;;;;;9.11;73.26;99531.50;4928529;28;102660;-68
2023/01/03 11:51:52;;;;;;;;;14.00;11.00;;;;;8.99;72.94;99527.44;4931091;28;102323;-69
2023/01/03 11:55:07;;;;;;;;;15.75;11.25;;;;;9.01;73.11;99528.09;4929677;28;108626;-68
2023/01/03 11:57:43;;;;;;;;;13.25;11.50;;;;;8.99;72.77;99532.84;4911453;28;102901;-69
2023/01/03 12:00:49;;;;;;;;;21.00;13.50;;;;;8.89;72.96;99522.22;4933390;28;102327;-68
2023/01/03 12:03:48;;;;;;;;;16.25;11.50;;;;;8.95;73.90;99524.25;4915042;28;102433;-69
2023/01/03 12:06:30;;;;;;;;;11.25;10.50;;;;;8.83;73.40;99501.31;4913860;28;109214;-68
2023/01/03 12:09:00;;;;;;;;;13.75;11.00;;;;;8.96;73.34;99529.47;4930218;28;102339;-69
2023/01/03 12:11:45;;;;;;;;;15.25;13.75;;;;;9.01;73.19;99520.84;4923910;28;102185;-69
2023/01/03 12:14:25;;;;;;;;;21.50;18.00;;;;;8.96;72.78;99528.63;4924785;28;102244;-69
2023/01/03 12:17:20;;;;;;;;;14.75;13.00;;;;;9.11;72.72;99526.09;4931723;28;108690;-69
2023/01/03 12:19:56;;;;;;;;;9.50;9.00;;;;;9.17;72.44;99520.03;4902666;28;102388;-69
2023/01/03 12:22:43;;;;;;;;;15.00;11.50;;;;;9.12;72.35;99508.91;4921000;28;102313;-69
2023/01/03 12:25:24;;;;;;;;;8.50;8.00;;;;;9.18;72.35;99511.78;4921084;28;102245;-69
2023/01/03 12:28:09;;;;;;;;;14.25;11.00;;;;;9.15;71.81;99517.50;4930595;28;108721;-69
2023/01/03 12:30:49;;;;;;;;;14.00;10.00;;;;;9.20;72.23;99514.28;4930925;28;102325;-69
2023/01/03 12:33:18;;;;;;;;;14.00;12.00;;;;;9.10;71.54;99514.44;4931775;28;102270;-67
2023/01/03 12:36:00;;;;;;;;;11.00;11.00;;;;;9.14;71.09;99513.09;4924331;28;102614;-69
2023/01/03 12:38:40;;;;;;;;;11.25;8.75;;;;;9.12;70.41;99517.00;4928145;28;108344;-68
2023/01/03 12:41:27;;;;;;;;;12.00;10.00;;;;;9.02;70.83;99513.63;4917598;28;102507;-69
2023/01/03 12:44:06;;;;;;;;;11.50;10.75;;;;;9.02;71.29;99510.91;4916653;28;102126;-71
2023/01/03 12:46:40;;;;;;;;;13.75;11.50;;;;;9.08;70.29;99511.09;4916354;28;102390;-68
2023/01/03 12:49:20;;;;;;;;;16.00;12.25;;;;;9.08;71.00;99513.78;4930363;28;104124;-69
2023/01/03 12:51:47;;;;;;;;;11.50;10.75;;;;;9.05;70.30;99513.31;4929173;28;102098;-68
2023/01/03 12:54:41;;;;;;;;;11.00;10.00;;;;;8.91;70.33;99518.34;4931665;28;102392;-67